Time;durP1;ratioP1;P1;durP2;ratioP2;P2;SDS_P1;SDS_P2;PMS_P1;PMS_P2;Temp;Humidity;BMP_temperature;BMP_pressure;BME280_temperature;BME280_humidity;BME280_pressure;Samples;Min_cycle;Max_cycle;Signal;HPM_P1;HPM_P2
2023/07/09 00:00:49;;;;;;;8.30;7.50;;;20.40;59.20;;;20.17;55.63;98269.31;5028210;28;20937;-79
2023/07/09 00:03:20;;;;;;;9.07;8.27;;;20.30;59.50;;;19.98;56.01;98256.13;5026277;28;20460;-80
2023/07/09 00:05:50;;;;;;;9.57;8.00;;;20.20;59.90;;;19.99;55.97;98266.00;5025573;28;20525;-78
2023/07/09 00:08:28;;;;;;;7.97;7.23;;;20.10;60.40;;;20.04;56.14;98271.50;5010410;28;20472;-78
2023/07/09 00:10:55;;;;;;;8.53;6.93;;;20.10;60.40;;;19.90;56.42;98267.59;5019021;28;20542;-80
2023/07/09 00:13:24;;;;;;;9.30;7.90;;;20.00;60.40;;;19.79;56.75;98264.84;5041488;28;20860;-79
2023/07/09 00:15:52;;;;;;;8.23;7.47;;;20.00;60.80;;;19.81;56.36;98262.66;5029305;28;20463;-79
2023/07/09 00:18:19;;;;;;;10.50;7.57;;;20.00;61.00;;;19.76;57.07;98268.09;5026913;28;20529;-79
2023/07/09 00:20:48;;;;;;;7.80;7.00;;;19.90;61.50;;;19.92;57.06;98285.47;5018692;28;20587;-79
2023/07/09 00:23:16;;;;;;;8.17;6.90;;;19.80;61.80;;;19.87;56.89;98287.31;5027699;28;20862;-80
2023/07/09 00:25:45;;;;;;;7.30;6.60;;;19.80;61.90;;;19.80;57.10;98282.94;5027059;28;20865;-79
2023/07/09 00:28:15;;;;;;;8.20;7.50;;;19.80;62.10;;;19.62;57.13;98250.50;5026687;28;20454;-78
2023/07/09 00:30:42;;;;;;;8.20;7.03;;;19.70;62.40;;;19.65;57.44;98274.66;5040196;28;21070;-79
2023/07/09 00:33:14;;;;;;;7.30;6.60;;;19.70;62.70;;;19.63;57.46;98287.78;5027232;28;20450;-78
2023/07/09 00:35:42;;;;;;;8.53;7.27;;;19.70;62.90;;;19.59;57.57;98275.72;5042791;28;20484;-79
2023/07/09 00:38:15;;;;;;;7.67;7.07;;;19.70;63.00;;;19.62;57.94;98286.13;5032969;28;20479;-79
2023/07/09 00:40:59;;;;;;;8.03;7.23;;;19.60;63.20;;;19.63;57.70;98285.03;5029624;28;20452;-79
2023/07/09 00:43:31;;;;;;;8.87;7.97;;;19.60;63.60;;;19.57;57.92;98288.88;5029138;28;20451;-79
2023/07/09 00:46:57;;;;;;;8.43;7.60;;;19.60;63.70;;;19.55;58.12;98286.38;5013851;28;20474;-80
2023/07/09 00:49:34;;;;;;;7.47;6.77;;;19.60;64.00;;;19.52;58.00;98297.88;5025097;28;21219;-78
2023/07/09 00:52:21;;;;;;;9.13;8.03;;;19.50;64.30;;;19.49;58.15;98292.94;5023878;28;20454;-79
2023/07/09 00:54:50;;;;;;;8.30;7.50;;;19.50;64.40;;;19.44;58.42;98296.47;5035309;28;20451;-79
2023/07/09 00:57:24;;;;;;;7.87;7.27;;;19.40;64.80;;;19.47;58.26;98284.97;5037237;28;20434;-79
2023/07/09 00:59:57;;;;;;;7.87;7.07;;;19.40;65.00;;;19.32;58.51;98276.69;5061917;28;20450;-77
2023/07/09 01:02:24;;;;;;;9.17;7.87;;;19.40;65.20;;;19.29;58.91;98285.44;5044272;28;20466;-78
2023/07/09 01:04:55;;;;;;;9.30;7.53;;;19.30;65.50;;;19.31;59.07;98281.38;5056381;28;20511;-77
2023/07/09 01:07:22;;;;;;;9.10;8.20;;;19.30;66.00;;;19.18;59.38;98277.19;5033242;28;20728;-79
2023/07/09 01:09:49;;;;;;;8.07;7.20;;;19.20;66.10;;;19.22;58.92;98267.34;5019994;28;20454;-79
2023/07/09 01:12:21;;;;;;;8.63;7.73;;;19.30;66.30;;;19.30;58.83;98287.09;5027523;28;20648;-79
2023/07/09 01:14:51;;;;;;;10.57;8.50;;;19.30;66.30;;;19.30;58.88;98284.34;5025920;28;20541;-79
2023/07/09 01:17:19;;;;;;;8.93;8.13;;;19.30;66.30;;;19.22;59.21;98288.44;5026276;28;20553;-78
2023/07/09 01:19:51;;;;;;;10.17;8.00;;;19.30;66.60;;;19.19;59.55;98287.06;5028149;28;20830;-78
2023/07/09 01:22:24;;;;;;;9.03;7.30;;;19.20;67.10;;;19.11;59.47;98282.06;5021645;28;20939;-80
2023/07/09 01:25:01;;;;;;;9.00;7.73;;;19.20;67.10;;;19.00;59.78;98280.34;5025005;28;20466;-77
2023/07/09 01:27:33;;;;;;;8.10;7.30;;;19.10;67.20;;;19.05;59.54;98288.63;5017211;28;20809;-78
2023/07/09 01:30:02;;;;;;;8.30;7.40;;;19.10;67.20;;;19.04;59.70;98293.25;5042764;28;20826;-77
2023/07/09 01:32:30;;;;;;;8.53;6.77;;;19.10;67.50;;;18.91;60.10;98286.31;5023978;28;20447;-78
2023/07/09 01:35:04;;;;;;;8.70;7.33;;;19.00;67.60;;;18.93;60.15;98286.88;5022087;28;20458;-78
2023/07/09 01:37:36;;;;;;;9.07;8.17;;;19.00;68.00;;;18.89;60.20;98291.22;5021114;28;20450;-76
2023/07/09 01:40:06;;;;;;;9.33;8.30;;;18.90;68.20;;;18.88;60.19;98286.84;5023219;28;20930;-77
2023/07/09 01:42:34;;;;;;;8.80;7.40;;;18.90;68.60;;;18.82;60.29;98290.63;5024395;28;20450;-76
2023/07/09 01:45:03;;;;;;;9.03;8.07;;;18.90;68.60;;;18.78;60.24;98289.50;5027336;28;20466;-77
2023/07/09 01:47:31;;;;;;;9.20;8.30;;;18.80;68.70;;;18.73;60.33;98297.66;5025330;28;20451;-77
2023/07/09 01:49:59;;;;;;;8.73;7.83;;;18.80;68.70;;;18.74;60.44;98293.88;5024886;28;20902;-77
2023/07/09 01:52:30;;;;;;;8.13;7.30;;;18.80;69.60;;;18.69;60.46;98287.25;5024443;28;20454;-79
2023/07/09 01:54:59;;;;;;;8.43;7.53;;;18.80;69.30;;;18.64;60.63;98289.94;5024461;28;20537;-78
2023/07/09 01:57:33;;;;;;;8.87;8.07;;;18.70;69.60;;;18.67;60.78;98294.09;5042851;28;20446;-77
2023/07/09 02:00:04;;;;;;;9.50;8.13;;;18.70;70.00;;;18.63;60.91;98295.66;5020439;28;20475;-77
2023/07/09 02:02:32;;;;;;;10.70;7.77;;;18.70;69.90;;;18.67;60.71;98289.41;5025565;28;20490;-77
2023/07/09 02:05:00;;;;;;;9.30;8.10;;;18.70;70.00;;;18.60;60.68;98296.19;5031285;28;20951;-78
2023/07/09 02:07:28;;;;;;;8.67;7.47;;;18.70;70.00;;;18.61;60.68;98301.44;5028672;28;21519;-77
2023/07/09 02:09:55;;;;;;;8.70;7.90;;;18.70;70.20;;;18.36;60.97;98269.22;5030997;28;20457;-77
2023/07/09 02:12:24;;;;;;;7.90;7.10;;;18.70;70.40;;;18.64;60.67;98306.38;5043380;28;20981;-78
2023/07/09 02:14:51;;;;;;;8.47;7.60;;;18.60;70.30;;;18.64;60.75;98305.53;5027516;28;20444;-78
2023/07/09 02:17:19;;;;;;;8.10;7.40;;;18.60;70.50;;;18.59;60.81;98303.59;5014990;28;20440;-78
2023/07/09 02:19:46;;;;;;;9.53;8.47;;;18.60;70.70;;;18.55;60.77;98300.56;5029518;28;20850;-78
2023/07/09 02:22:14;;;;;;;8.67;7.87;;;18.60;70.80;;;18.48;61.18;98299.13;5024404;28;21097;-77
2023/07/09 02:24:41;;;;;;;8.50;7.70;;;18.60;71.20;;;18.40;61.46;98305.91;5020431;28;22021;-78
2023/07/09 02:27:11;;;;;;;10.00;8.00;;;18.50;71.30;;;18.31;61.80;98305.53;5027297;28;20552;-77
2023/07/09 02:29:39;;;;;;;8.40;7.50;;;18.40;71.40;;;18.32;61.69;98307.19;5030882;28;20536;-77
2023/07/09 02:32:08;;;;;;;8.03;7.23;;;18.40;71.60;;;18.18;61.97;98281.34;5017326;28;20504;-76
2023/07/09 02:34:35;;;;;;;8.67;7.87;;;18.40;71.80;;;18.36;61.79;98302.84;5029231;28;20462;-77
2023/07/09 02:37:03;;;;;;;9.03;8.13;;;18.40;72.00;;;18.19;62.27;98310.34;5028474;28;20485;-77
2023/07/09 02:39:30;;;;;;;9.00;8.10;;;18.30;72.20;;;18.23;62.21;98301.38;5029040;28;20516;-77
2023/07/09 02:41:57;;;;;;;8.20;7.40;;;18.30;72.50;;;18.21;61.95;98310.91;5029127;28;20474;-78
2023/07/09 02:44:25;;;;;;;8.33;7.53;;;18.30;72.50;;;18.21;62.06;98313.63;5030048;28;20454;-78
2023/07/09 02:46:53;;;;;;;10.63;9.53;;;18.30;72.60;;;18.12;61.77;98297.72;5030179;28;20454;-77
2023/07/09 02:49:20;;;;;;;8.47;7.07;;;18.30;72.30;;;18.19;61.75;98315.81;5019661;28;20975;-76
2023/07/09 02:51:48;;;;;;;9.70;8.50;;;18.30;72.30;;;18.08;61.87;98307.50;5010594;28;20990;-79
2023/07/09 02:54:15;;;;;;;8.70;7.90;;;18.20;72.30;;;18.10;61.73;98313.53;5023885;28;20673;-76
2023/07/09 02:56:42;;;;;;;8.87;8.00;;;18.20;72.20;;;18.14;61.81;98313.03;5028529;28;20447;-79
2023/07/09 02:59:09;;;;;;;9.17;8.23;;;18.20;72.40;;;18.11;61.81;98312.44;5029143;28;20459;-78
2023/07/09 03:01:36;;;;;;;9.60;8.00;;;18.20;72.40;;;18.04;61.83;98303.63;5043458;28;20459;-78
2023/07/09 03:04:05;;;;;;;8.43;7.63;;;18.20;72.70;;;18.13;61.95;98312.19;5030670;28;20458;-78
2023/07/09 03:06:34;;;;;;;9.60;7.80;;;18.10;72.70;;;18.17;61.80;98323.44;5023562;28;20475;-78
2023/07/09 03:09:03;;;;;;;10.47;7.53;;;18.20;72.80;;;18.12;62.25;98325.06;5026963;28;20491;-78
2023/07/09 03:11:32;;;;;;;8.23;7.43;;;18.20;73.10;;;18.02;62.44;98319.47;5028371;28;20564;-77
2023/07/09 03:14:00;;;;;;;8.60;7.73;;;18.10;73.20;;;18.06;62.01;98328.00;5029914;28;20438;-78
2023/07/09 03:16:28;;;;;;;9.93;8.17;;;18.10;73.10;;;18.06;61.91;98319.78;5029174;28;20446;-78
2023/07/09 03:18:56;;;;;;;8.20;7.33;;;18.20;73.00;;;18.04;62.00;98330.13;5029763;28;20951;-77
2023/07/09 03:21:27;;;;;;;7.90;7.20;;;18.10;73.00;;;17.88;61.89;98294.41;5026649;28;20459;-77
2023/07/09 03:23:55;;;;;;;7.30;6.60;;;18.10;73.00;;;18.01;61.77;98312.31;5022585;28;20510;-77
2023/07/09 03:26:23;;;;;;;8.87;7.17;;;18.10;73.10;;;17.94;61.80;98308.94;5025225;28;20552;-76
2023/07/09 03:28:50;;;;;;;8.30;7.50;;;18.10;73.10;;;18.04;61.99;98327.41;5026642;28;20458;-77
2023/07/09 03:31:17;;;;;;;8.00;7.30;;;18.10;73.20;;;18.06;61.86;98338.94;5023393;28;20458;-77
2023/07/09 03:33:44;;;;;;;9.40;8.50;;;18.10;73.00;;;17.95;61.93;98327.84;5029040;28;20439;-77
2023/07/09 03:36:11;;;;;;;8.77;7.97;;;18.20;73.00;;;17.98;61.96;98335.53;5024727;28;21017;-77
2023/07/09 03:38:40;;;;;;;8.77;7.90;;;18.20;73.10;;;18.06;61.79;98337.00;5034394;28;20451;-77
2023/07/09 03:41:07;;;;;;;8.23;7.43;;;18.10;73.40;;;18.16;61.74;98338.22;5029871;28;20442;-78
2023/07/09 03:43:34;;;;;;;7.43;6.50;;;18.20;73.10;;;18.03;61.75;98329.31;5027864;28;20528;-76
2023/07/09 03:46:02;;;;;;;8.10;7.30;;;18.20;73.10;;;18.12;61.82;98344.19;5027849;28;20859;-77
2023/07/09 03:48:29;;;;;;;8.13;7.43;;;18.20;73.10;;;18.24;61.43;98335.00;5027019;28;20443;-77
2023/07/09 03:50:57;;;;;;;11.30;8.40;;;18.30;73.00;;;18.31;60.90;98337.53;5038047;28;20954;-77
2023/07/09 03:53:24;;;;;;;8.40;7.53;;;18.30;72.70;;;18.33;60.78;98332.63;5040889;28;20978;-77
2023/07/09 03:55:56;;;;;;;7.77;7.07;;;18.40;72.60;;;18.21;61.10;98338.25;5044649;28;20481;-77
2023/07/09 03:58:25;;;;;;;8.20;7.50;;;18.40;72.50;;;18.24;61.10;98343.19;5034139;28;20513;-77
2023/07/09 04:00:53;;;;;;;7.97;7.27;;;18.40;72.50;;;18.26;60.47;98317.25;5028084;28;20549;-77
2023/07/09 04:03:21;;;;;;;8.20;7.30;;;18.40;72.30;;;18.35;60.36;98336.75;5027058;28;20469;-77
2023/07/09 04:05:49;;;;;;;11.13;8.00;;;18.50;72.10;;;18.31;60.35;98346.56;5034835;28;20885;-78
2023/07/09 04:08:16;;;;;;;7.67;6.90;;;18.50;71.70;;;18.39;59.84;98346.09;5025675;28;20940;-77
2023/07/09 04:10:43;;;;;;;8.37;7.57;;;18.50;71.40;;;18.63;59.22;98353.13;5026323;28;20969;-76
2023/07/09 04:13:11;;;;;;;7.90;6.97;;;18.70;71.10;;;19.18;57.81;98348.38;5026152;28;20489;-79
2023/07/09 04:15:39;;;;;;;7.77;7.07;;;19.20;70.30;;;19.49;56.58;98331.31;5023906;28;20451;-78
2023/07/09 04:18:06;;;;;;;7.80;7.10;;;19.80;69.20;;;20.14;54.52;98335.69;5027785;28;20470;-77
2023/07/09 04:20:34;;;;;;;8.20;7.40;;;20.40;67.90;;;20.37;53.55;98350.81;5038460;28;20446;-77
2023/07/09 04:23:02;;;;;;;8.37;7.23;;;20.80;66.30;;;20.83;52.75;98352.78;5022676;28;20469;-78
2023/07/09 04:25:29;;;;;;;7.90;6.43;;;21.20;65.50;;;20.58;53.14;98356.31;5034374;28;20954;-77
2023/07/09 04:27:56;;;;;;;7.47;6.77;;;21.30;64.50;;;20.48;53.47;98354.41;5027717;28;20473;-77
2023/07/09 04:30:25;;;;;;;9.20;7.60;;;21.20;64.50;;;20.72;52.65;98351.94;5025035;28;20602;-78
2023/07/09 04:32:52;;;;;;;10.30;8.10;;;21.40;64.20;;;21.20;51.77;98353.59;5026337;28;20450;-78
2023/07/09 04:35:19;;;;;;;9.70;8.23;;;21.70;63.80;;;21.14;51.70;98352.75;5025038;28;20634;-79
2023/07/09 04:37:47;;;;;;;8.27;7.23;;;21.80;63.10;;;20.84;52.01;98354.44;5014239;28;20464;-78
2023/07/09 04:40:15;;;;;;;8.17;7.37;;;21.60;62.60;;;21.07;51.67;98355.78;5023475;28;20451;-79
2023/07/09 04:42:44;;;;;;;9.97;8.87;;;21.70;62.70;;;21.01;51.30;98331.38;5024805;28;20468;-78
2023/07/09 04:45:13;;;;;;;7.20;6.50;;;21.80;62.30;;;21.21;50.73;98336.84;5019129;28;20486;-78
2023/07/09 04:47:42;;;;;;;8.23;7.17;;;21.90;62.00;;;21.91;49.64;98346.25;5027224;28;20461;-78
2023/07/09 04:50:11;;;;;;;8.27;7.47;;;22.10;61.70;;;22.47;47.91;98348.94;5017314;28;20485;-77
2023/07/09 04:52:38;;;;;;;7.63;6.83;;;22.60;61.10;;;22.10;49.11;98364.84;5025977;28;20461;-77
2023/07/09 04:55:08;;;;;;;8.00;7.20;;;22.80;60.50;;;22.01;49.25;98359.13;5027712;28;20940;-77
2023/07/09 04:57:36;;;;;;;9.27;8.20;;;22.80;60.20;;;21.91;49.42;98353.66;5040592;28;20455;-78
2023/07/09 05:00:05;;;;;;;10.93;8.43;;;22.70;60.10;;;21.64;49.85;98336.44;5027682;28;20508;-77
2023/07/09 05:02:32;;;;;;;7.67;6.90;;;22.50;60.10;;;21.87;49.67;98347.09;5024073;28;20549;-77
2023/07/09 05:05:01;;;;;;;8.37;6.60;;;22.50;60.30;;;22.40;48.46;98342.97;5021193;28;20488;-77
2023/07/09 05:07:28;;;;;;;8.50;7.67;;;22.80;59.90;;;22.56;47.84;98352.78;5023817;28;20927;-77
2023/07/09 05:09:55;;;;;;;8.57;7.60;;;23.20;59.30;;;22.97;47.17;98348.88;5013496;28;20513;-76
2023/07/09 05:12:27;;;;;;;7.73;6.93;;;23.40;59.20;;;23.21;46.44;98346.16;5022476;28;20458;-78
2023/07/09 05:14:56;;;;;;;7.83;7.03;;;23.70;58.50;;;23.38;46.16;98350.44;5024637;28;20525;-78
2023/07/09 05:17:23;;;;;;;8.00;6.93;;;23.80;58.20;;;23.18;46.50;98357.78;5026560;28;20461;-79
2023/07/09 05:19:51;;;;;;;7.20;6.50;;;23.90;57.90;;;23.38;46.36;98355.13;5025388;28;20615;-78
2023/07/09 05:22:19;;;;;;;8.13;7.30;;;24.10;57.70;;;23.67;45.20;98359.78;5022898;28;20600;-77
2023/07/09 05:24:47;;;;;;;7.80;7.10;;;24.30;57.30;;;23.66;44.90;98356.19;5039819;28;20477;-77
2023/07/09 05:27:14;;;;;;;8.13;7.30;;;24.40;56.80;;;24.24;43.51;98365.41;5026617;28;21065;-77
2023/07/09 05:29:41;;;;;;;7.93;7.00;;;24.60;56.50;;;24.15;43.91;98356.16;5027403;28;20544;-77
2023/07/09 05:32:09;;;;;;;7.67;6.93;;;24.60;56.20;;;24.28;43.75;98360.94;5025987;28;20457;-77
2023/07/09 05:34:36;;;;;;;7.87;7.07;;;24.70;56.10;;;24.58;42.09;98342.28;5029098;28;20458;-77
2023/07/09 05:37:04;;;;;;;8.30;7.50;;;24.80;55.50;;;25.51;40.91;98363.94;5028638;28;20511;-78
2023/07/09 05:39:32;;;;;;;7.13;6.60;;;25.50;54.70;;;26.08;39.44;98362.81;5038158;28;20447;-77
2023/07/09 05:42:00;;;;;;;7.63;6.83;;;26.10;53.80;;;25.52;39.48;98362.81;5038047;28;20463;-78
2023/07/09 05:44:27;;;;;;;8.43;7.63;;;26.20;52.50;;;25.36;40.15;98356.75;5043984;28;20505;-78
2023/07/09 05:46:54;;;;;;;8.00;7.30;;;25.80;52.60;;;25.92;39.16;98365.06;5028487;28;20473;-77
2023/07/09 05:49:21;;;;;;;7.80;7.10;;;26.00;52.60;;;25.70;39.16;98358.31;5030931;28;20454;-78
2023/07/09 05:51:48;;;;;;;7.67;6.87;;;26.20;52.20;;;25.70;38.96;98347.25;5023607;28;20873;-78
2023/07/09 05:54:15;;;;;;;7.50;6.70;;;26.40;51.90;;;26.08;38.69;98360.03;5030495;28;20496;-78
2023/07/09 05:56:44;;;;;;;7.77;7.07;;;26.60;51.90;;;26.10;38.45;98355.00;5040679;28;20466;-78
2023/07/09 05:59:11;;;;;;;7.23;6.53;;;26.60;51.50;;;26.05;38.45;98350.41;5030565;28;20447;-78
2023/07/09 06:01:39;;;;;;;6.80;6.30;;;26.50;51.50;;;26.54;37.89;98364.56;5029126;28;20464;-78
2023/07/09 06:04:06;;;;;;;7.90;7.20;;;26.70;51.40;;;26.54;37.78;98358.22;5018545;28;20934;-78
2023/07/09 06:06:33;;;;;;;7.77;7.07;;;26.90;50.90;;;26.86;36.90;98356.38;5039934;28;20554;-77
2023/07/09 06:09:01;;;;;;;7.30;6.60;;;27.10;50.80;;;27.54;36.17;98372.13;5030246;28;20458;-78
2023/07/09 06:11:28;;;;;;;7.67;6.97;;;27.50;50.60;;;27.20;36.75;98370.75;5024398;28;20451;-77
2023/07/09 06:13:58;;;;;;;8.30;7.50;;;27.70;50.30;;;27.34;36.45;98374.25;5027278;28;20458;-77
2023/07/09 06:16:25;;;;;;;7.30;6.60;;;27.90;50.20;;;27.45;36.75;98374.81;5029580;28;20524;-78
2023/07/09 06:18:52;;;;;;;7.40;6.70;;;28.00;50.30;;;27.69;36.05;98377.22;5042481;28;20875;-78
2023/07/09 06:21:20;;;;;;;7.33;6.70;;;28.20;49.90;;;27.52;36.45;98364.09;5037541;28;20541;-78
2023/07/09 06:23:47;;;;;;;7.20;6.60;;;28.10;49.90;;;27.17;36.85;98374.16;5028194;28;20450;-78
2023/07/09 06:26:15;;;;;;;8.50;7.70;;;27.90;49.70;;;27.23;36.97;98378.44;5029448;28;21319;-77
2023/07/09 06:28:42;;;;;;;7.73;7.07;;;27.80;49.70;;;27.89;36.06;98377.78;5028843;28;20947;-79
2023/07/09 06:31:10;;;;;;;7.43;6.70;;;28.10;49.80;;;27.23;37.23;98365.38;5027167;28;20545;-78
2023/07/09 06:33:38;;;;;;;7.20;6.50;;;27.90;49.90;;;26.45;38.48;98363.66;5028710;28;20509;-77
2023/07/09 06:36:06;;;;;;;6.87;6.37;;;27.10;50.40;;;25.93;39.43;98373.06;5041191;28;20519;-79
2023/07/09 06:38:33;;;;;;;7.80;7.10;;;26.40;50.90;;;25.29;41.26;98388.38;5024042;28;20459;-78
2023/07/09 06:41:00;;;;;;;8.07;7.30;;;25.70;51.80;;;24.84;41.80;98383.34;5032694;28;20451;-77
2023/07/09 06:43:28;;;;;;;7.67;6.93;;;25.10;51.90;;;24.63;42.26;98388.31;5025630;28;20451;-78
2023/07/09 06:45:57;;;;;;;8.10;7.30;;;24.90;52.30;;;25.03;41.89;98396.28;5053624;28;20475;-76
2023/07/09 06:48:27;;;;;;;7.43;6.63;;;25.00;52.80;;;25.11;41.78;98387.31;5056943;28;20440;-78
2023/07/09 06:50:56;;;;;;;8.10;7.30;;;25.10;52.60;;;25.22;41.71;98387.94;5052948;28;20450;-78
2023/07/09 06:53:24;;;;;;;8.60;7.70;;;25.30;52.60;;;25.20;41.65;98389.38;5039154;28;20446;-77
2023/07/09 06:55:54;;;;;;;8.37;7.57;;;25.30;52.60;;;25.21;42.12;98399.31;5036987;28;20904;-78
2023/07/09 06:58:23;;;;;;;8.50;7.53;;;25.20;53.00;;;25.50;41.73;98393.56;5039892;28;20447;-77
2023/07/09 07:00:50;;;;;;;7.47;6.70;;;25.40;53.00;;;25.15;41.26;98338.59;5020467;28;20447;-77
2023/07/09 07:03:18;;;;;;;7.90;7.20;;;25.50;52.80;;;25.95;40.40;98386.63;5030111;28;20453;-78
2023/07/09 07:05:49;;;;;;;8.23;7.43;;;25.70;52.70;;;26.05;40.46;98382.81;5042383;28;20442;-77
2023/07/09 07:08:19;;;;;;;8.67;6.40;;;26.00;52.70;;;26.35;40.16;98377.75;5027704;28;20454;-80
2023/07/09 07:10:48;;;;;;;7.53;6.93;;;26.20;52.70;;;26.78;39.33;98385.63;5024593;28;20443;-78
2023/07/09 07:13:15;;;;;;;7.13;6.43;;;26.60;52.40;;;26.87;38.64;98383.75;5018783;28;20454;-78
2023/07/09 07:15:45;;;;;;;8.43;6.30;;;26.70;51.90;;;27.00;38.81;98382.06;5028371;28;20852;-78
2023/07/09 07:18:13;;;;;;;6.90;6.30;;;26.80;52.00;;;27.18;38.47;98375.78;5035809;28;20493;-77
2023/07/09 07:20:40;;;;;;;7.13;6.43;;;27.10;51.70;;;27.14;38.27;98370.88;5025143;28;20812;-78
2023/07/09 07:23:08;;;;;;;7.17;6.57;;;27.10;51.60;;;27.22;38.51;98382.34;5025843;28;20458;-79
2023/07/09 07:25:35;;;;;;;8.07;6.30;;;27.20;51.60;;;27.15;38.59;98383.63;5027424;28;20467;-79
2023/07/09 07:28:02;;;;;;;5.97;5.37;;;27.10;51.50;;;27.00;38.70;98392.31;5022512;28;21760;-80
2023/07/09 07:30:30;;;;;;;6.10;5.50;;;27.00;51.40;;;27.18;38.14;98381.34;5025910;28;20446;-78
2023/07/09 07:32:57;;;;;;;6.67;6.07;;;27.00;51.30;;;27.44;37.68;98382.31;5013373;28;20447;-78
2023/07/09 07:35:24;;;;;;;8.37;5.53;;;27.30;51.10;;;27.62;37.37;98385.19;5022302;28;20459;-80
2023/07/09 07:37:51;;;;;;;6.13;5.53;;;27.50;50.90;;;27.70;37.21;98381.63;5038200;28;20811;-79
2023/07/09 07:40:20;;;;;;;7.03;6.27;;;27.60;50.80;;;28.34;36.40;98381.50;5028801;28;20500;-79
2023/07/09 07:42:47;;;;;;;6.33;5.30;;;28.00;50.80;;;28.25;36.46;98342.59;5020654;28;20462;-80
2023/07/09 07:45:14;;;;;;;5.63;5.13;;;28.20;50.50;;;27.91;36.78;98380.25;5019001;28;20935;-78
2023/07/09 07:47:42;;;;;;;8.80;6.17;;;28.00;50.20;;;28.13;36.61;98373.72;5021062;28;20478;-78
2023/07/09 07:50:10;;;;;;;4.97;4.57;;;28.00;50.30;;;28.73;35.68;98367.78;5027685;28;20935;-78
2023/07/09 07:52:37;;;;;;;6.53;5.17;;;28.40;50.80;;;28.37;35.93;98380.84;5025499;28;20458;-78
2023/07/09 07:55:06;;;;;;;5.90;4.90;;;28.40;50.00;;;28.71;35.29;98379.22;5032128;28;20447;-78
2023/07/09 07:57:35;;;;;;;4.80;4.40;;;28.40;49.90;;;29.23;34.66;98374.75;5028056;28;20459;-78
2023/07/09 08:00:04;;;;;;;5.30;4.80;;;28.80;49.80;;;29.35;34.63;98374.06;5027645;28;20529;-79
2023/07/09 08:02:31;;;;;;;5.33;4.40;;;29.10;49.40;;;29.34;34.10;98328.72;5022755;28;20577;-79
2023/07/09 08:04:58;;;;;;;5.30;4.60;;;29.40;49.50;;;29.83;33.87;98366.53;5024420;28;20536;-78
2023/07/09 08:07:28;;;;;;;4.70;4.23;;;29.60;49.10;;;29.33;33.96;98374.38;5027630;28;20470;-78
2023/07/09 08:09:55;;;;;;;4.97;4.50;;;29.40;48.80;;;29.78;34.11;98375.06;5037948;28;20467;-78
2023/07/09 08:12:22;;;;;;;4.10;3.70;;;29.50;49.00;;;30.20;33.53;98364.03;5024332;28;20944;-78
2023/07/09 08:14:51;;;;;;;4.70;4.30;;;29.70;49.00;;;30.00;33.29;98365.59;5026901;28;20446;-79
2023/07/09 08:17:18;;;;;;;5.83;4.47;;;29.90;48.80;;;30.27;33.36;98357.13;5024534;28;20462;-79
2023/07/09 08:19:48;;;;;;;4.13;3.67;;;29.90;48.90;;;30.42;33.09;98359.31;5010866;28;20494;-79
2023/07/09 08:22:16;;;;;;;5.13;4.63;;;30.10;48.60;;;30.70;32.85;98358.75;5018108;28;20815;-78
2023/07/09 08:24:44;;;;;;;5.17;4.70;;;30.30;48.70;;;30.74;32.60;98356.94;5023481;28;20450;-79
2023/07/09 08:27:11;;;;;;;5.13;4.47;;;30.50;48.60;;;30.69;32.79;98357.13;5022376;28;20474;-78
2023/07/09 08:29:39;;;;;;;4.60;4.03;;;30.50;48.20;;;30.82;32.10;98338.50;5041374;28;20565;-77
2023/07/09 08:32:10;;;;;;;4.70;4.33;;;30.60;48.30;;;31.16;32.18;98355.19;5015806;28;20450;-78
2023/07/09 08:34:47;;;;;;;4.77;4.23;;;30.80;48.20;;;30.79;32.39;98356.72;5025143;28;20919;-78
2023/07/09 08:37:14;;;;;;;4.13;3.77;;;30.70;47.80;;;30.43;32.68;98360.94;5013588;28;20450;-78
2023/07/09 08:39:42;;;;;;;5.00;4.30;;;30.30;48.00;;;31.07;32.09;98347.75;5025231;28;20573;-79
2023/07/09 08:42:15;;;;;;;4.37;3.93;;;30.60;48.20;;;31.29;31.75;98345.72;5020478;28;20449;-80
2023/07/09 08:45:02;;;;;;;4.40;4.00;;;30.90;48.10;;;31.48;31.39;98316.47;5024218;28;20508;-77
2023/07/09 08:47:44;;;;;;;4.10;3.60;;;31.20;47.90;;;31.38;31.93;98349.25;5015519;28;20486;-76
2023/07/09 08:50:15;;;;;;;3.80;3.50;;;31.20;47.60;;;30.87;31.96;98329.91;5032242;28;20515;-77
2023/07/09 08:52:45;;;;;;;3.53;3.20;;;30.90;47.40;;;30.74;32.14;98344.97;5024693;28;20509;-80
2023/07/09 08:55:17;;;;;;;4.60;3.60;;;30.70;47.60;;;30.73;32.04;98310.69;5021626;28;20455;-81
2023/07/09 08:57:47;;;;;;;4.50;4.00;;;30.70;47.80;;;31.28;31.22;98344.09;5025202;28;20458;-79
2023/07/09 09:00:19;;;;;;;3.33;3.00;;;30.90;47.40;;;31.15;30.69;98348.00;5026825;28;20465;-79
2023/07/09 09:02:53;;;;;;;3.10;2.80;;;30.90;46.60;;;31.58;30.02;98343.91;5023805;28;20446;-78
2023/07/09 09:05:24;;;;;;;3.43;3.13;;;31.20;46.50;;;31.15;30.06;98306.13;5027795;28;20452;-78
2023/07/09 09:07:57;;;;;;;3.90;2.80;;;31.20;45.90;;;31.22;29.93;98340.72;5024404;28;20468;-78
2023/07/09 09:10:37;;;;;;;3.87;3.47;;;31.20;45.80;;;31.68;29.63;98350.19;5027689;28;20450;-78
2023/07/09 09:13:11;;;;;;;3.90;3.20;;;31.30;45.80;;;31.81;28.85;98360.22;5025727;28;20449;-78
2023/07/09 09:15:40;;;;;;;6.00;3.50;;;31.40;45.20;;;31.89;28.47;98322.97;5026607;28;20454;-78
2023/07/09 09:18:23;;;;;;;3.77;3.37;;;31.60;45.20;;;31.92;29.03;98350.22;5022676;28;20458;-78
2023/07/09 09:20:57;;;;;;;3.60;3.30;;;31.70;45.20;;;32.09;28.59;98326.00;5026620;28;20501;-79
2023/07/09 09:23:32;;;;;;;3.90;3.50;;;31.80;45.30;;;32.16;28.99;98342.97;5025204;28;20504;-78
2023/07/09 09:26:02;;;;;;;4.30;3.90;;;31.90;45.40;;;32.22;28.77;98337.94;5042691;28;20495;-78
2023/07/09 09:28:30;;;;;;;4.43;3.00;;;31.90;45.00;;;32.42;28.20;98347.38;5026842;28;20504;-77
2023/07/09 09:30:57;;;;;;;4.90;3.90;;;32.00;44.80;;;32.44;27.90;98345.03;5024621;28;20450;-77
2023/07/09 09:33:25;;;;;;;3.37;3.03;;;32.10;44.70;;;32.18;27.77;98329.44;5023633;28;21142;-79
2023/07/09 09:36:06;;;;;;;5.30;4.07;;;32.00;44.30;;;32.41;28.18;98340.16;5018751;28;20458;-78
2023/07/09 09:38:37;;;;;;;5.20;3.83;;;32.10;44.50;;;32.61;27.60;98335.53;5026964;28;20461;-77
2023/07/09 09:41:04;;;;;;;3.93;3.53;;;32.20;44.30;;;32.54;27.42;98335.31;5029754;28;20455;-78
2023/07/09 09:43:34;;;;;;;5.00;4.10;;;32.20;44.20;;;32.62;27.30;98331.56;5039874;28;20466;-80
2023/07/09 09:46:07;;;;;;;4.97;3.50;;;32.30;43.90;;;32.42;27.63;98338.97;5044495;28;20454;-77
2023/07/09 09:48:38;;;;;;;4.47;3.80;;;32.10;43.80;;;32.63;26.81;98343.56;5051515;28;20474;-79
2023/07/09 09:51:06;;;;;;;4.57;3.63;;;32.20;43.50;;;32.72;26.57;98341.44;5024880;28;20466;-79
2023/07/09 09:53:41;;;;;;;3.63;3.03;;;32.30;43.50;;;32.58;26.44;98344.63;5010951;28;20447;-78
2023/07/09 09:56:27;;;;;;;3.63;3.30;;;32.30;43.20;;;32.77;26.81;98345.97;5039458;28;20523;-77
2023/07/09 09:58:56;;;;;;;4.10;3.70;;;32.40;43.30;;;32.53;27.24;98344.03;5019086;28;20442;-76
2023/07/09 10:01:29;;;;;;;3.63;3.33;;;32.40;43.40;;;32.31;26.67;98344.22;5039624;28;20509;-79
2023/07/09 10:04:00;;;;;;;3.47;3.17;;;32.20;42.90;;;32.13;26.41;98346.47;5028187;28;20505;-77
2023/07/09 10:06:37;;;;;;;4.30;2.93;;;32.00;42.70;;;32.34;26.42;98331.53;5023704;28;20524;-77
2023/07/09 10:09:21;;;;;;;4.03;3.60;;;32.00;42.70;;;32.49;26.74;98332.78;5022020;28;21127;-79
2023/07/09 10:11:51;;;;;;;4.50;4.10;;;32.20;42.90;;;32.53;26.73;98327.28;5025771;28;20492;-77
2023/07/09 10:14:35;;;;;;;4.40;3.30;;;32.20;43.00;;;32.92;25.95;98322.00;5039307;28;20451;-78
2023/07/09 10:17:16;;;;;;;3.87;3.47;;;32.50;42.70;;;33.18;25.63;98329.09;5039455;28;20484;-78
2023/07/09 10:19:54;;;;;;;4.00;3.60;;;32.70;42.40;;;33.56;25.24;98332.47;5027237;28;20553;-79
2023/07/09 10:22:39;;;;;;;3.77;3.47;;;33.00;42.30;;;33.48;24.66;98337.09;5028229;28;20450;-79
2023/07/09 10:25:21;;;;;;;3.80;3.40;;;33.20;41.80;;;33.42;24.31;98341.28;5027885;28;20462;-78
2023/07/09 10:28:07;;;;;;;3.60;3.10;;;33.10;41.30;;;32.51;24.71;98277.31;5029111;28;20596;-77